Time;durP1;ratioP1;P1;durP2;ratioP2;P2;SDS_P1;SDS_P2;PMS_P1;PMS_P2;Temp;Humidity;BMP_temperature;BMP_pressure;BME280_temperature;BME280_humidity;BME280_pressure;Samples;Min_cycle;Max_cycle;Signal;HPM_P1;HPM_P2
2024/01/08 00:07:16;;;;;;;0.08;0.08;;;1.30;99.90;;;;;;21075169;28;20062;-61
2024/01/08 00:17:21;;;;;;;0.28;0.20;;;1.40;99.90;;;;;;21073977;28;20051;-61
2024/01/08 00:27:23;;;;;;;0.30;0.10;;;1.30;99.90;;;;;;21073533;28;20032;-61
2024/01/08 00:37:25;;;;;;;1.45;0.10;;;1.20;99.90;;;;;;21072779;28;20028;-61
2024/01/08 00:47:27;;;;;;;0.43;0.17;;;1.10;99.90;;;;;;21072247;28;20481;-61
2024/01/08 00:57:29;;;;;;;0.10;0.10;;;1.10;99.90;;;;;;21071407;28;20058;-61
2024/01/08 01:07:31;;;;;;;0.10;0.10;;;1.10;99.90;;;;;;21070409;28;20539;-61
2024/01/08 01:17:36;;;;;;;0.20;0.10;;;1.10;99.90;;;;;;21070010;28;20060;-60
2024/01/08 01:27:38;;;;;;;0.40;0.10;;;1.10;99.90;;;;;;21069015;28;20097;-60
2024/01/08 01:37:42;;;;;;;0.10;0.10;;;1.00;99.90;;;;;;21068228;28;20156;-60
2024/01/08 01:47:44;;;;;;;0.20;0.10;;;1.00;99.90;;;;;;21067435;28;20040;-60
2024/01/08 01:57:46;;;;;;;0.30;0.10;;;0.90;99.90;;;;;;21066122;28;20054;-60
2024/01/08 02:07:49;;;;;;;0.30;0.10;;;0.90;99.90;;;;;;21062145;28;20036;-60
2024/01/08 02:17:54;;;;;;;0.63;0.05;;;0.90;99.90;;;;;;21066079;28;20044;-60
2024/01/08 02:27:56;;;;;;;0.10;0.10;;;0.90;99.90;;;;;;21065624;28;20051;-60
2024/01/08 02:37:58;;;;;;;0.00;0.00;;;0.90;99.90;;;;;;21067309;28;20423;-60
2024/01/08 02:48:00;;;;;;;0.20;0.10;;;1.00;99.90;;;;;;21065201;28;20485;-60
2024/01/08 02:58:05;;;;;;;0.20;0.10;;;1.00;99.90;;;;;;21064578;28;20062;-60
2024/01/08 03:08:07;;;;;;;0.10;0.10;;;1.00;99.90;;;;;;21068208;28;20035;-60
2024/01/08 03:18:09;;;;;;;0.10;0.10;;;1.10;99.90;;;;;;21060833;28;20555;-59
2024/01/08 03:28:11;;;;;;;1.23;0.10;;;1.20;99.90;;;;;;21076133;28;20036;-60
2024/01/08 03:38:13;;;;;;;0.20;0.05;;;1.20;99.90;;;;;;21077445;28;20062;-60
2024/01/08 03:48:15;;;;;;;0.15;0.10;;;1.20;99.90;;;;;;21076842;28;20539;-60
2024/01/08 03:58:17;;;;;;;1.00;0.00;;;1.30;99.90;;;;;;21075978;28;20039;-59
2024/01/08 04:08:19;;;;;;;0.20;0.08;;;1.30;99.90;;;;;;21056803;28;20725;-60
2024/01/08 04:18:21;;;;;;;0.03;0.00;;;1.30;99.90;;;;;;21073255;28;20036;-60
2024/01/08 04:28:23;;;;;;;0.25;0.08;;;1.30;99.90;;;;;;21069545;28;20054;-61
2024/01/08 04:38:25;;;;;;;0.20;0.10;;;1.30;99.90;;;;;;21054450;28;20032;-60
2024/01/08 04:48:27;;;;;;;0.10;0.00;;;1.50;99.90;;;;;;21072225;28;20036;-60
2024/01/08 04:58:31;;;;;;;0.10;0.10;;;1.40;99.90;;;;;;21069567;28;20039;-60
2024/01/08 05:08:33;;;;;;;0.15;0.10;;;1.40;99.90;;;;;;21052005;28;20089;-60
2024/01/08 05:18:35;;;;;;;0.03;0.03;;;1.30;99.90;;;;;;21069382;28;20056;-60
2024/01/08 05:28:36;;;;;;;0.13;0.00;;;1.40;99.90;;;;;;21048761;28;20044;-56
2024/01/08 05:38:38;;;;;;;0.10;0.00;;;1.40;99.90;;;;;;21068421;28;20100;-59
2024/01/08 05:48:43;;;;;;;0.20;0.10;;;1.60;99.90;;;;;;21067937;28;20032;-52
2024/01/08 05:58:45;;;;;;;0.28;0.10;;;1.50;99.90;;;;;;21063587;28;20039;-59
2024/01/08 06:08:48;;;;;;;0.10;0.08;;;1.50;99.90;;;;;;21061460;28;20486;-59
2024/01/08 06:18:50;;;;;;;0.15;0.10;;;1.40;99.90;;;;;;21062211;28;20161;-60
2024/01/08 06:28:52;;;;;;;0.15;0.05;;;1.40;99.90;;;;;;21063920;28;20375;-60
2024/01/08 06:38:54;;;;;;;0.10;0.03;;;1.30;99.90;;;;;;21060322;28;20044;-61
2024/01/08 06:48:56;;;;;;;0.32;0.10;;;1.40;99.90;;;;;;21073326;28;20447;-60
2024/01/08 06:59:01;;;;;;;0.13;0.00;;;1.40;99.90;;;;;;21075647;28;20032;-60
2024/01/08 07:09:03;;;;;;;0.20;0.00;;;1.50;99.90;;;;;;21057430;28;20040;-60
2024/01/08 07:19:05;;;;;;;0.00;0.00;;;1.50;99.90;;;;;;21073566;28;20101;-59
2024/01/08 07:29:07;;;;;;;0.10;0.03;;;1.60;99.90;;;;;;21073483;28;20577;-60
2024/01/08 07:39:10;;;;;;;0.10;0.05;;;1.60;99.90;;;;;;21072955;28;20036;-60
2024/01/08 07:49:13;;;;;;;0.52;0.08;;;1.70;99.90;;;;;;21067897;28;20036;-59
2024/01/08 07:59:18;;;;;;;0.30;0.10;;;1.70;99.90;;;;;;21070108;28;20394;-60
2024/01/08 08:09:20;;;;;;;0.20;0.10;;;1.80;99.90;;;;;;21071051;28;20039;-61
2024/01/08 08:19:22;;;;;;;0.10;0.10;;;2.10;99.90;;;;;;21068948;28;20493;-60
2024/01/08 08:29:24;;;;;;;0.17;0.10;;;2.30;99.90;;;;;;21069537;28;20035;-60
2024/01/08 08:39:41;;;;;;;0.20;0.10;;;2.50;99.90;;;;;;21069350;28;20032;-59
2024/01/08 08:49:43;;;;;;;0.10;0.10;;;2.60;99.90;;;;;;21064610;28;20040;-59
2024/01/08 08:59:44;;;;;;;0.63;0.10;;;2.70;99.90;;;;;;21066587;28;20311;-60
2024/01/08 09:09:46;;;;;;;0.17;0.10;;;2.90;99.90;;;;;;21064218;28;20059;-59
2024/01/08 09:19:52;;;;;;;0.28;0.20;;;3.10;99.90;;;;;;21065427;28;20449;-59
2024/01/08 09:29:54;;;;;;;0.20;0.10;;;3.30;99.90;;;;;;21061560;28;20043;-60
2024/01/08 09:39:56;;;;;;;0.20;0.10;;;3.60;99.90;;;;;;21057238;28;20036;-61
2024/01/08 09:49:59;;;;;;;0.10;0.10;;;3.90;99.90;;;;;;21062187;28;20085;-62
2024/01/08 10:00:05;;;;;;;0.32;0.10;;;4.20;99.90;;;;;;21061174;28;20036;-59
2024/01/08 10:10:14;;;;;;;0.10;0.10;;;4.20;99.90;;;;;;21062423;28;20070;-60
2024/01/08 10:20:17;;;;;;;0.55;0.15;;;3.70;99.90;;;;;;21068428;28;20051;-60
2024/01/08 10:30:19;;;;;;;0.10;0.10;;;3.90;99.90;;;;;;21078319;28;20603;-61
2024/01/08 10:40:21;;;;;;;0.20;0.10;;;3.70;99.90;;;;;;21079978;28;20028;-61
2024/01/08 10:50:26;;;;;;;0.10;0.10;;;3.80;99.90;;;;;;21076632;28;20032;-61
2024/01/08 11:00:28;;;;;;;0.47;0.10;;;3.70;99.90;;;;;;21075079;28;20390;-60
2024/01/08 11:10:30;;;;;;;0.10;0.10;;;3.70;99.90;;;;;;21073638;28;20526;-61
2024/01/08 11:20:59;;;;;;;0.10;0.10;;;3.90;99.90;;;;;;21073473;28;20036;-61
2024/01/08 11:31:07;;;;;;;0.10;0.10;;;4.20;99.90;;;;;;21070403;28;20509;-62
2024/01/08 11:41:12;;;;;;;0.77;0.20;;;4.20;99.90;;;;;;21071847;28;20089;-49
2024/01/08 11:51:14;;;;;;;0.40;0.20;;;4.70;99.90;;;;;;21072222;28;20036;-61
2024/01/08 12:01:20;;;;;;;0.57;0.10;;;4.80;99.90;;;;;;21070396;28;20020;-61
2024/01/08 12:11:27;;;;;;;0.20;0.15;;;4.90;98.80;;;;;;21070709;28;20039;-52
2024/01/08 12:21:30;;;;;;;0.57;0.17;;;4.90;98.40;;;;;;21049920;28;20409;-50
2024/01/08 12:31:34;;;;;;;0.17;0.10;;;5.10;97.00;;;;;;21050197;28;20028;-62
2024/01/08 12:41:37;;;;;;;0.10;0.10;;;5.00;97.10;;;;;;21046171;28;20036;-62
2024/01/08 12:51:39;;;;;;;0.22;0.13;;;5.40;96.90;;;;;;21066321;28;20040;-62
2024/01/08 13:01:44;;;;;;;0.43;0.05;;;6.10;97.70;;;;;;21065970;28;20535;-61
2024/01/08 13:11:47;;;;;;;0.20;0.10;;;5.60;96.60;;;;;;21068155;28;20036;-51
2024/01/08 13:21:52;;;;;;;0.45;0.10;;;5.20;97.80;;;;;;21064553;28;20093;-60
2024/01/08 13:31:54;;;;;;;1.75;0.20;;;5.40;96.80;;;;;;21063959;28;20089;-60
2024/01/08 13:41:56;;;;;;;0.28;0.13;;;5.30;98.80;;;;;;21063428;28;20032;-60
2024/01/08 13:51:58;;;;;;;0.85;0.20;;;5.10;97.90;;;;;;21062701;28;20031;-57
2024/01/08 14:01:59;;;;;;;0.47;0.30;;;4.20;97.40;;;;;;21060822;28;20129;-59
2024/01/08 14:12:02;;;;;;;0.40;0.25;;;3.40;99.10;;;;;;21060747;28;20063;-59
2024/01/08 14:22:04;;;;;;;0.40;0.20;;;3.00;99.60;;;;;;21060497;28;20048;-59
2024/01/08 14:32:06;;;;;;;0.30;0.20;;;2.80;99.90;;;;;;21061724;28;20032;-59
2024/01/08 14:42:10;;;;;;;0.60;0.30;;;2.80;99.90;;;;;;21062094;28;20058;-59
2024/01/08 14:52:12;;;;;;;0.57;0.30;;;2.70;99.60;;;;;;21059513;28;20043;-57
2024/01/08 15:02:14;;;;;;;0.40;0.20;;;2.40;99.90;;;;;;21060999;28;20082;-50
2024/01/08 15:12:15;;;;;;;0.28;0.20;;;2.20;99.90;;;;;;21075486;28;20089;-59
2024/01/08 15:22:17;;;;;;;0.50;0.30;;;2.00;99.90;;;;;;21073575;28;20055;-59
2024/01/08 15:32:22;;;;;;;0.40;0.30;;;1.90;99.90;;;;;;21074595;28;20505;-58
2024/01/08 15:42:24;;;;;;;0.20;0.15;;;1.80;99.90;;;;;;21073918;28;20108;-59
2024/01/08 15:52:26;;;;;;;0.50;0.40;;;1.60;99.90;;;;;;21073322;28;20028;-59
2024/01/08 16:02:30;;;;;;;0.47;0.40;;;1.30;99.90;;;;;;21072207;28;20054;-58
2024/01/08 16:12:32;;;;;;;0.45;0.30;;;1.40;99.90;;;;;;21067287;28;20043;-58
2024/01/08 16:22:34;;;;;;;1.02;0.40;;;1.20;99.90;;;;;;21052346;28;20098;-59
2024/01/08 16:32:36;;;;;;;0.40;0.25;;;1.00;99.90;;;;;;21074512;28;20032;-59
2024/01/08 16:42:38;;;;;;;0.40;0.30;;;1.00;99.90;;;;;;21055143;28;20028;-59
2024/01/08 16:52:40;;;;;;;0.80;0.30;;;1.30;99.90;;;;;;21072624;28;20040;-59
2024/01/08 17:02:42;;;;;;;0.43;0.30;;;1.30;99.90;;;;;;21054002;28;20036;-59
2024/01/08 17:12:44;;;;;;;0.90;0.40;;;1.60;99.90;;;;;;21070810;28;20040;-59
2024/01/08 17:22:46;;;;;;;0.47;0.30;;;1.70;99.90;;;;;;21069840;28;20429;-60
2024/01/08 17:32:49;;;;;;;0.50;0.30;;;1.60;99.90;;;;;;21052413;28;20494;-59
2024/01/08 17:42:54;;;;;;;0.50;0.30;;;1.40;99.90;;;;;;21068496;28;20093;-59
2024/01/08 17:52:56;;;;;;;1.23;0.73;;;1.30;99.90;;;;;;21050174;28;20028;-59
2024/01/08 18:03:00;;;;;;;0.55;0.30;;;1.40;99.90;;;;;;21049492;28;20501;-60
2024/01/08 18:13:06;;;;;;;0.65;0.40;;;1.30;99.90;;;;;;21066859;28;20040;-60
2024/01/08 18:23:09;;;;;;;0.80;0.40;;;1.60;99.90;;;;;;20996140;28;20052;-60
2024/01/08 18:33:16;;;;;;;1.35;0.80;;;1.70;99.90;;;;;;21049118;28;20048;-60
2024/01/08 18:43:19;;;;;;;4.38;0.88;;;1.40;99.90;;;;;;21076872;28;20047;-59
2024/01/08 18:53:23;;;;;;;1.52;0.60;;;1.00;99.90;;;;;;21081749;28;20032;-57
2024/01/08 19:03:27;;;;;;;1.35;0.70;;;1.10;99.90;;;;;;21081279;28;20401;-57
2024/01/08 19:13:34;;;;;;;1.10;0.80;;;1.10;99.90;;;;;;21080194;28;20090;-59
2024/01/08 19:23:37;;;;;;;1.58;0.90;;;0.90;99.90;;;;;;21079691;28;20066;-59
2024/01/08 19:33:40;;;;;;;1.60;0.95;;;0.60;99.90;;;;;;21079114;28;20097;-53
2024/01/08 19:43:41;;;;;;;1.80;1.20;;;0.50;99.90;;;;;;21078086;28;20043;-59
2024/01/08 19:53:43;;;;;;;1.88;0.98;;;0.60;99.90;;;;;;21059002;28;20032;-60
2024/01/08 20:03:45;;;;;;;2.17;1.40;;;1.00;99.90;;;;;;21076551;28;20028;-59
2024/01/08 20:13:47;;;;;;;2.08;1.33;;;0.90;99.90;;;;;;21075074;28;20160;-60
2024/01/08 20:23:50;;;;;;;2.85;2.00;;;0.90;99.90;;;;;;21074460;28;20048;-48
2024/01/08 20:33:52;;;;;;;1.98;1.00;;;1.00;99.90;;;;;;21074093;28;20057;-59
2024/01/08 20:43:54;;;;;;;3.72;2.00;;;0.90;99.90;;;;;;21072617;28;20032;-59
2024/01/08 20:53:56;;;;;;;3.28;1.80;;;0.90;99.90;;;;;;21072195;28;20547;-60
2024/01/08 21:03:58;;;;;;;0.90;0.40;;;0.80;99.90;;;;;;21052992;28;20040;-60
2024/01/08 21:14:00;;;;;;;1.45;0.88;;;1.10;99.90;;;;;;21070311;28;20433;-60
2024/01/08 21:24:01;;;;;;;3.20;1.23;;;1.10;99.90;;;;;;21064983;28;20467;-59
2024/01/08 21:34:05;;;;;;;2.50;1.50;;;0.90;99.90;;;;;;21069057;28;20032;-59
2024/01/08 21:44:07;;;;;;;2.35;1.48;;;0.70;99.90;;;;;;21068232;28;20090;-60
2024/01/08 21:54:09;;;;;;;2.10;1.38;;;0.60;99.90;;;;;;21050005;28;20044;-60
2024/01/08 22:04:11;;;;;;;2.03;1.20;;;0.50;99.90;;;;;;21067615;28;20036;-60
2024/01/08 22:14:13;;;;;;;1.90;1.30;;;0.50;99.90;;;;;;21065650;28;20021;-60
2024/01/08 22:24:14;;;;;;;2.40;1.30;;;0.50;99.90;;;;;;21066381;28;20047;-59
2024/01/08 22:34:16;;;;;;;2.92;1.23;;;0.50;99.90;;;;;;21066226;28;20386;-59
2024/01/08 22:44:18;;;;;;;2.10;1.10;;;0.50;99.90;;;;;;21065526;28;20043;-59
2024/01/08 22:54:20;;;;;;;1.88;1.15;;;0.40;99.90;;;;;;21065584;28;20036;-60
2024/01/08 23:04:25;;;;;;;3.08;1.52;;;0.40;99.90;;;;;;21065512;28;20040;-59
2024/01/08 23:14:28;;;;;;;3.30;1.60;;;0.20;99.90;;;;;;21046574;28;20032;-58
2024/01/08 23:24:35;;;;;;;1.63;1.13;;;-0.30;99.90;;;;;;20981799;28;20044;-59
2024/01/08 23:34:37;;;;;;;3.13;1.60;;;-0.80;99.90;;;;;;20990615;28;20041;-59
2024/01/08 23:44:39;;;;;;;2.40;1.45;;;-0.80;99.90;;;;;;20993693;28;20037;-59
2024/01/08 23:54:41;;;;;;;3.20;1.33;;;-0.70;99.90;;;;;;20993090;28;20043;-60
